sensor_id;sensor_type;location;lat;lon;timestamp;temperature;humidity
5429;DHT22;2737;52.386;9.980;2023-03-25T00:01:02;9.00;99.90
5429;DHT22;2737;52.386;9.980;2023-03-25T00:03:35;9.00;99.90
5429;DHT22;2737;52.386;9.980;2023-03-25T00:06:05;9.00;99.90
5429;DHT22;2737;52.386;9.980;2023-03-25T00:08:32;9.10;99.90
5429;DHT22;2737;52.386;9.980;2023-03-25T00:11:01;9.10;99.90
5429;DHT22;2737;52.386;9.980;2023-03-25T00:13:29;9.00;99.90
5429;DHT22;2737;52.386;9.980;2023-03-25T00:15:57;9.00;99.90
5429;DHT22;2737;52.386;9.980;2023-03-25T00:18:26;9.00;99.90
5429;DHT22;2737;52.386;9.980;2023-03-25T00:21:00;9.10;99.90
5429;DHT22;2737;52.386;9.980;2023-03-25T00:23:29;9.10;99.90
5429;DHT22;2737;52.386;9.980;2023-03-25T00:25:57;9.10;99.90
5429;DHT22;2737;52.386;9.980;2023-03-25T00:28:26;9.10;99.90
5429;DHT22;2737;52.386;9.980;2023-03-25T00:30:58;9.10;99.90
5429;DHT22;2737;52.386;9.980;2023-03-25T00:33:25;9.10;99.90
5429;DHT22;2737;52.386;9.980;2023-03-25T00:35:53;9.10;99.90
5429;DHT22;2737;52.386;9.980;2023-03-25T00:38:25;9.10;99.90
5429;DHT22;2737;52.386;9.980;2023-03-25T00:41:06;9.10;99.90
5429;DHT22;2737;52.386;9.980;2023-03-25T00:43:33;9.20;99.90
5429;DHT22;2737;52.386;9.980;2023-03-25T00:46:01;9.20;99.90
5429;DHT22;2737;52.386;9.980;2023-03-25T00:48:28;9.10;99.90
5429;DHT22;2737;52.386;9.980;2023-03-25T00:50:55;9.20;99.90
5429;DHT22;2737;52.386;9.980;2023-03-25T00:53:22;9.20;99.90
5429;DHT22;2737;52.386;9.980;2023-03-25T00:55:56;9.20;99.90
5429;DHT22;2737;52.386;9.980;2023-03-25T00:58:23;9.10;99.90
5429;DHT22;2737;52.386;9.980;2023-03-25T01:00:50;9.10;99.90
5429;DHT22;2737;52.386;9.980;2023-03-25T01:03:17;9.10;99.90
5429;DHT22;2737;52.386;9.980;2023-03-25T01:05:44;9.10;99.90
5429;DHT22;2737;52.386;9.980;2023-03-25T01:08:11;9.20;99.90
5429;DHT22;2737;52.386;9.980;2023-03-25T01:10:39;9.20;99.90
5429;DHT22;2737;52.386;9.980;2023-03-25T01:13:07;9.30;99.90
5429;DHT22;2737;52.386;9.980;2023-03-25T01:15:34;9.20;99.90
5429;DHT22;2737;52.386;9.980;2023-03-25T01:18:01;9.30;99.90
5429;DHT22;2737;52.386;9.980;2023-03-25T01:20:28;9.30;99.90
5429;DHT22;2737;52.386;9.980;2023-03-25T01:22:56;9.20;99.90
5429;DHT22;2737;52.386;9.980;2023-03-25T01:25:23;9.20;99.90
5429;DHT22;2737;52.386;9.980;2023-03-25T01:27:50;9.20;99.90
5429;DHT22;2737;52.386;9.980;2023-03-25T01:30:18;9.20;99.90
5429;DHT22;2737;52.386;9.980;2023-03-25T01:32:45;9.20;99.90
5429;DHT22;2737;52.386;9.980;2023-03-25T01:35:12;9.20;99.90
5429;DHT22;2737;52.386;9.980;2023-03-25T01:37:40;9.30;99.90
5429;DHT22;2737;52.386;9.980;2023-03-25T01:40:10;9.20;99.90
5429;DHT22;2737;52.386;9.980;2023-03-25T01:42:42;9.30;99.90
5429;DHT22;2737;52.386;9.980;2023-03-25T01:45:24;9.30;99.90
5429;DHT22;2737;52.386;9.980;2023-03-25T01:47:57;9.30;99.90
5429;DHT22;2737;52.386;9.980;2023-03-25T01:50:26;9.40;99.90
5429;DHT22;2737;52.386;9.980;2023-03-25T01:52:56;9.40;99.90
5429;DHT22;2737;52.386;9.980;2023-03-25T01:55:23;9.30;99.90
5429;DHT22;2737;52.386;9.980;2023-03-25T01:57:53;9.30;99.90
5429;DHT22;2737;52.386;9.980;2023-03-25T02:00:23;9.30;99.90
5429;DHT22;2737;52.386;9.980;2023-03-25T02:02:52;9.30;99.90
5429;DHT22;2737;52.386;9.980;2023-03-25T02:05:29;9.40;99.90
5429;DHT22;2737;52.386;9.980;2023-03-25T02:07:58;9.40;99.90
5429;DHT22;2737;52.386;9.980;2023-03-25T02:10:25;9.40;99.90
5429;DHT22;2737;52.386;9.980;2023-03-25T02:12:52;9.40;99.90
5429;DHT22;2737;52.386;9.980;2023-03-25T02:15:20;9.40;99.90
5429;DHT22;2737;52.386;9.980;2023-03-25T02:18:08;9.40;99.90
5429;DHT22;2737;52.386;9.980;2023-03-25T02:21:10;9.40;99.90
5429;DHT22;2737;52.386;9.980;2023-03-25T02:27:11;9.30;99.90
5429;DHT22;2737;52.386;9.980;2023-03-25T02:29:54;9.30;99.90
5429;DHT22;2737;52.386;9.980;2023-03-25T02:32:37;9.30;99.90
5429;DHT22;2737;52.386;9.980;2023-03-25T02:35:26;9.20;99.90
5429;DHT22;2737;52.386;9.980;2023-03-25T02:38:15;9.20;99.90
5429;DHT22;2737;52.386;9.980;2023-03-25T02:40:51;9.20;99.90
5429;DHT22;2737;52.386;9.980;2023-03-25T02:43:25;9.10;99.90
5429;DHT22;2737;52.386;9.980;2023-03-25T02:45:58;9.10;99.90
5429;DHT22;2737;52.386;9.980;2023-03-25T02:48:29;9.00;99.90
5429;DHT22;2737;52.386;9.980;2023-03-25T02:51:00;9.10;99.90
5429;DHT22;2737;52.386;9.980;2023-03-25T02:53:33;9.00;99.90
5429;DHT22;2737;52.386;9.980;2023-03-25T02:56:05;9.00;99.90
5429;DHT22;2737;52.386;9.980;2023-03-25T02:58:34;8.90;99.90
5429;DHT22;2737;52.386;9.980;2023-03-25T03:01:03;8.80;99.90
5429;DHT22;2737;52.386;9.980;2023-03-25T03:03:30;8.80;99.90
5429;DHT22;2737;52.386;9.980;2023-03-25T03:05:59;8.80;99.90
5429;DHT22;2737;52.386;9.980;2023-03-25T03:08:43;8.90;99.90
5429;DHT22;2737;52.386;9.980;2023-03-25T03:11:15;8.80;99.90
5429;DHT22;2737;52.386;9.980;2023-03-25T03:13:59;8.90;99.90
5429;DHT22;2737;52.386;9.980;2023-03-25T03:16:42;8.80;99.90
5429;DHT22;2737;52.386;9.980;2023-03-25T03:19:21;8.80;99.90
5429;DHT22;2737;52.386;9.980;2023-03-25T03:21:55;8.70;99.90
5429;DHT22;2737;52.386;9.980;2023-03-25T03:24:30;8.70;99.90
5429;DHT22;2737;52.386;9.980;2023-03-25T03:27:03;8.70;99.90
5429;DHT22;2737;52.386;9.980;2023-03-25T03:29:35;8.70;99.90
5429;DHT22;2737;52.386;9.980;2023-03-25T03:32:06;8.70;99.90
5429;DHT22;2737;52.386;9.980;2023-03-25T03:34:39;8.70;99.90
5429;DHT22;2737;52.386;9.980;2023-03-25T03:37:11;8.60;99.90
5429;DHT22;2737;52.386;9.980;2023-03-25T03:39:41;8.60;99.90
5429;DHT22;2737;52.386;9.980;2023-03-25T03:42:14;8.60;99.90
5429;DHT22;2737;52.386;9.980;2023-03-25T03:44:46;8.60;99.90
5429;DHT22;2737;52.386;9.980;2023-03-25T03:47:18;8.70;99.90
5429;DHT22;2737;52.386;9.980;2023-03-25T03:49:51;8.60;99.90
5429;DHT22;2737;52.386;9.980;2023-03-25T03:52:21;8.60;99.90
5429;DHT22;2737;52.386;9.980;2023-03-25T03:54:54;8.60;99.90
5429;DHT22;2737;52.386;9.980;2023-03-25T03:57:26;8.60;99.90
5429;DHT22;2737;52.386;9.980;2023-03-25T03:59:57;8.60;99.90
5429;DHT22;2737;52.386;9.980;2023-03-25T04:02:36;8.60;99.90
5429;DHT22;2737;52.386;9.980;2023-03-25T04:05:05;8.60;99.90
5429;DHT22;2737;52.386;9.980;2023-03-25T04:07:36;8.60;99.90
5429;DHT22;2737;52.386;9.980;2023-03-25T04:10:11;8.50;99.90
5429;DHT22;2737;52.386;9.980;2023-03-25T04:12:42;8.50;99.90
5429;DHT22;2737;52.386;9.980;2023-03-25T04:15:11;8.50;99.90
5429;DHT22;2737;52.386;9.980;2023-03-25T04:17:38;8.40;99.90
5429;DHT22;2737;52.386;9.980;2023-03-25T04:20:06;8.40;99.90
5429;DHT22;2737;52.386;9.980;2023-03-25T04:22:36;8.40;99.90
5429;DHT22;2737;52.386;9.980;2023-03-25T04:25:04;8.40;99.90
5429;DHT22;2737;52.386;9.980;2023-03-25T04:27:33;8.40;99.90
5429;DHT22;2737;52.386;9.980;2023-03-25T04:30:03;8.40;99.90
5429;DHT22;2737;52.386;9.980;2023-03-25T04:32:31;8.40;99.90
5429;DHT22;2737;52.386;9.980;2023-03-25T04:34:58;8.30;99.90
5429;DHT22;2737;52.386;9.980;2023-03-25T04:37:25;8.40;99.90
5429;DHT22;2737;52.386;9.980;2023-03-25T04:39:52;8.40;99.90
5429;DHT22;2737;52.386;9.980;2023-03-25T04:42:20;8.50;99.90
5429;DHT22;2737;52.386;9.980;2023-03-25T04:44:51;8.40;99.90
5429;DHT22;2737;52.386;9.980;2023-03-25T04:47:21;8.40;99.90
5429;DHT22;2737;52.386;9.980;2023-03-25T04:49:48;8.40;99.90
5429;DHT22;2737;52.386;9.980;2023-03-25T04:52:16;8.30;99.90
5429;DHT22;2737;52.386;9.980;2023-03-25T04:54:43;8.30;99.90
5429;DHT22;2737;52.386;9.980;2023-03-25T04:57:11;8.20;99.90
5429;DHT22;2737;52.386;9.980;2023-03-25T04:59:38;8.20;99.90
5429;DHT22;2737;52.386;9.980;2023-03-25T05:02:07;8.10;99.90
5429;DHT22;2737;52.386;9.980;2023-03-25T05:04:38;8.10;99.90
5429;DHT22;2737;52.386;9.980;2023-03-25T05:07:07;8.20;99.90
5429;DHT22;2737;52.386;9.980;2023-03-25T05:09:34;8.20;99.90
5429;DHT22;2737;52.386;9.980;2023-03-25T05:12:02;8.20;99.90
5429;DHT22;2737;52.386;9.980;2023-03-25T05:14:29;8.20;99.90
5429;DHT22;2737;52.386;9.980;2023-03-25T05:16:56;8.30;99.90
5429;DHT22;2737;52.386;9.980;2023-03-25T05:19:26;8.30;99.90
5429;DHT22;2737;52.386;9.980;2023-03-25T05:21:54;8.30;99.90
5429;DHT22;2737;52.386;9.980;2023-03-25T05:24:21;8.30;99.90
5429;DHT22;2737;52.386;9.980;2023-03-25T05:26:48;8.40;99.90
5429;DHT22;2737;52.386;9.980;2023-03-25T05:29:15;8.40;99.90
5429;DHT22;2737;52.386;9.980;2023-03-25T05:31:44;8.40;99.90
5429;DHT22;2737;52.386;9.980;2023-03-25T05:34:11;8.30;99.90
5429;DHT22;2737;52.386;9.980;2023-03-25T05:36:40;8.30;99.90
5429;DHT22;2737;52.386;9.980;2023-03-25T05:39:08;8.20;99.90
5429;DHT22;2737;52.386;9.980;2023-03-25T05:41:35;8.10;99.90
5429;DHT22;2737;52.386;9.980;2023-03-25T05:44:05;8.10;99.90
5429;DHT22;2737;52.386;9.980;2023-03-25T05:46:32;8.00;99.90
5429;DHT22;2737;52.386;9.980;2023-03-25T05:48:59;7.90;99.90
5429;DHT22;2737;52.386;9.980;2023-03-25T05:51:27;7.80;99.90
5429;DHT22;2737;52.386;9.980;2023-03-25T05:53:59;7.70;99.90
5429;DHT22;2737;52.386;9.980;2023-03-25T05:56:26;7.60;99.90
5429;DHT22;2737;52.386;9.980;2023-03-25T05:58:53;7.60;99.90
5429;DHT22;2737;52.386;9.980;2023-03-25T06:01:21;7.60;99.90
5429;DHT22;2737;52.386;9.980;2023-03-25T06:03:48;7.50;99.90
5429;DHT22;2737;52.386;9.980;2023-03-25T06:06:15;7.50;99.90
5429;DHT22;2737;52.386;9.980;2023-03-25T06:08:45;7.60;99.90
5429;DHT22;2737;52.386;9.980;2023-03-25T06:11:13;7.60;99.90
5429;DHT22;2737;52.386;9.980;2023-03-25T06:13:41;7.70;99.90
5429;DHT22;2737;52.386;9.980;2023-03-25T06:16:16;7.70;99.90
5429;DHT22;2737;52.386;9.980;2023-03-25T06:18:45;7.70;99.90
5429;DHT22;2737;52.386;9.980;2023-03-25T06:21:16;7.80;99.90
5429;DHT22;2737;52.386;9.980;2023-03-25T06:23:43;7.80;99.90
5429;DHT22;2737;52.386;9.980;2023-03-25T06:26:10;7.80;99.90
5429;DHT22;2737;52.386;9.980;2023-03-25T06:28:38;7.90;99.90
5429;DHT22;2737;52.386;9.980;2023-03-25T06:31:11;7.90;99.90
5429;DHT22;2737;52.386;9.980;2023-03-25T06:33:38;8.00;99.90
5429;DHT22;2737;52.386;9.980;2023-03-25T06:36:06;8.10;99.90
5429;DHT22;2737;52.386;9.980;2023-03-25T06:38:34;8.20;99.90
5429;DHT22;2737;52.386;9.980;2023-03-25T06:41:01;8.20;99.90
5429;DHT22;2737;52.386;9.980;2023-03-25T06:43:28;8.30;99.90
5429;DHT22;2737;52.386;9.980;2023-03-25T06:45:56;8.30;99.90
5429;DHT22;2737;52.386;9.980;2023-03-25T06:48:24;8.40;99.90
5429;DHT22;2737;52.386;9.980;2023-03-25T06:50:51;8.50;99.90
5429;DHT22;2737;52.386;9.980;2023-03-25T06:53:19;8.60;99.90
5429;DHT22;2737;52.386;9.980;2023-03-25T06:55:46;8.60;99.90
5429;DHT22;2737;52.386;9.980;2023-03-25T06:58:13;8.60;99.90
5429;DHT22;2737;52.386;9.980;2023-03-25T07:00:40;8.60;99.90
5429;DHT22;2737;52.386;9.980;2023-03-25T07:03:09;8.70;99.90
5429;DHT22;2737;52.386;9.980;2023-03-25T07:05:36;8.70;99.90
5429;DHT22;2737;52.386;9.980;2023-03-25T07:08:04;8.70;99.90
5429;DHT22;2737;52.386;9.980;2023-03-25T07:10:31;8.70;99.90
5429;DHT22;2737;52.386;9.980;2023-03-25T07:12:58;8.70;99.90
5429;DHT22;2737;52.386;9.980;2023-03-25T07:15:25;8.70;99.90
5429;DHT22;2737;52.386;9.980;2023-03-25T07:17:52;8.80;99.90
5429;DHT22;2737;52.386;9.980;2023-03-25T07:20:20;8.80;99.90
5429;DHT22;2737;52.386;9.980;2023-03-25T07:22:47;8.90;99.90
5429;DHT22;2737;52.386;9.980;2023-03-25T07:25:15;8.90;99.90
5429;DHT22;2737;52.386;9.980;2023-03-25T07:27:42;9.00;99.90
5429;DHT22;2737;52.386;9.980;2023-03-25T07:30:09;9.10;99.90
5429;DHT22;2737;52.386;9.980;2023-03-25T07:32:36;9.30;99.90
5429;DHT22;2737;52.386;9.980;2023-03-25T07:35:04;9.50;99.90
5429;DHT22;2737;52.386;9.980;2023-03-25T07:37:32;9.60;99.90
5429;DHT22;2737;52.386;9.980;2023-03-25T07:39:59;9.60;99.90
5429;DHT22;2737;52.386;9.980;2023-03-25T07:42:26;9.50;99.90
5429;DHT22;2737;52.386;9.980;2023-03-25T07:44:53;9.60;99.90
5429;DHT22;2737;52.386;9.980;2023-03-25T07:47:20;9.50;99.90
5429;DHT22;2737;52.386;9.980;2023-03-25T07:49:47;9.50;99.90
5429;DHT22;2737;52.386;9.980;2023-03-25T07:52:14;9.50;99.90
5429;DHT22;2737;52.386;9.980;2023-03-25T07:54:43;9.50;99.90
5429;DHT22;2737;52.386;9.980;2023-03-25T07:57:10;9.40;99.90
5429;DHT22;2737;52.386;9.980;2023-03-25T07:59:37;9.20;99.90
5429;DHT22;2737;52.386;9.980;2023-03-25T08:02:05;9.10;99.90
5429;DHT22;2737;52.386;9.980;2023-03-25T08:04:32;9.00;99.90
5429;DHT22;2737;52.386;9.980;2023-03-25T08:06:59;9.00;99.90
5429;DHT22;2737;52.386;9.980;2023-03-25T08:09:27;8.90;99.90
5429;DHT22;2737;52.386;9.980;2023-03-25T08:11:55;8.90;99.90
5429;DHT22;2737;52.386;9.980;2023-03-25T08:14:22;9.00;99.90
5429;DHT22;2737;52.386;9.980;2023-03-25T08:16:49;9.00;99.90
5429;DHT22;2737;52.386;9.980;2023-03-25T08:19:16;9.10;99.90
5429;DHT22;2737;52.386;9.980;2023-03-25T08:21:43;9.20;99.90
5429;DHT22;2737;52.386;9.980;2023-03-25T08:24:10;9.20;99.90
5429;DHT22;2737;52.386;9.980;2023-03-25T08:26:38;9.30;99.90
5429;DHT22;2737;52.386;9.980;2023-03-25T08:29:06;9.40;99.90
5429;DHT22;2737;52.386;9.980;2023-03-25T08:31:34;9.50;99.90
5429;DHT22;2737;52.386;9.980;2023-03-25T08:34:04;9.60;99.90
5429;DHT22;2737;52.386;9.980;2023-03-25T08:36:31;9.60;99.90
5429;DHT22;2737;52.386;9.980;2023-03-25T08:38:58;9.60;99.90
5429;DHT22;2737;52.386;9.980;2023-03-25T08:41:26;9.50;99.90
5429;DHT22;2737;52.386;9.980;2023-03-25T08:43:53;9.40;99.90
5429;DHT22;2737;52.386;9.980;2023-03-25T08:46:21;9.40;99.90
5429;DHT22;2737;52.386;9.980;2023-03-25T08:48:48;9.40;99.90
5429;DHT22;2737;52.386;9.980;2023-03-25T08:51:15;9.30;99.90
5429;DHT22;2737;52.386;9.980;2023-03-25T08:53:42;9.30;99.90
5429;DHT22;2737;52.386;9.980;2023-03-25T08:56:10;9.30;99.90
5429;DHT22;2737;52.386;9.980;2023-03-25T08:58:37;9.30;99.90
5429;DHT22;2737;52.386;9.980;2023-03-25T09:01:04;9.30;99.90
5429;DHT22;2737;52.386;9.980;2023-03-25T09:03:33;9.20;99.90
5429;DHT22;2737;52.386;9.980;2023-03-25T09:06:03;9.20;99.90
5429;DHT22;2737;52.386;9.980;2023-03-25T09:08:30;9.10;99.90
5429;DHT22;2737;52.386;9.980;2023-03-25T09:10:58;9.00;99.90
5429;DHT22;2737;52.386;9.980;2023-03-25T09:13:25;8.90;99.90
5429;DHT22;2737;52.386;9.980;2023-03-25T09:15:52;8.90;99.90
5429;DHT22;2737;52.386;9.980;2023-03-25T09:18:19;8.80;99.90
5429;DHT22;2737;52.386;9.980;2023-03-25T09:20:48;8.80;99.90
5429;DHT22;2737;52.386;9.980;2023-03-25T09:23:16;8.80;99.90
5429;DHT22;2737;52.386;9.980;2023-03-25T09:25:43;9.00;99.90
5429;DHT22;2737;52.386;9.980;2023-03-25T09:28:10;9.10;99.90
5429;DHT22;2737;52.386;9.980;2023-03-25T09:30:37;9.20;99.90
5429;DHT22;2737;52.386;9.980;2023-03-25T09:33:04;9.30;99.90
5429;DHT22;2737;52.386;9.980;2023-03-25T09:35:31;9.40;99.90
5429;DHT22;2737;52.386;9.980;2023-03-25T09:38:00;9.40;99.90
5429;DHT22;2737;52.386;9.980;2023-03-25T09:40:27;9.40;99.90
5429;DHT22;2737;52.386;9.980;2023-03-25T09:43:04;9.40;99.90
5429;DHT22;2737;52.386;9.980;2023-03-25T09:45:36;9.40;99.90
5429;DHT22;2737;52.386;9.980;2023-03-25T09:48:12;9.30;99.90
5429;DHT22;2737;52.386;9.980;2023-03-25T09:50:46;9.40;99.90
5429;DHT22;2737;52.386;9.980;2023-03-25T09:53:24;9.60;99.90
5429;DHT22;2737;52.386;9.980;2023-03-25T09:55:53;9.70;99.90
5429;DHT22;2737;52.386;9.980;2023-03-25T09:58:28;9.60;99.90
5429;DHT22;2737;52.386;9.980;2023-03-25T10:01:06;9.60;99.90
5429;DHT22;2737;52.386;9.980;2023-03-25T10:03:44;9.60;99.90
5429;DHT22;2737;52.386;9.980;2023-03-25T10:06:16;9.60;99.90
5429;DHT22;2737;52.386;9.980;2023-03-25T10:09:11;9.70;99.90
5429;DHT22;2737;52.386;9.980;2023-03-25T10:11:48;9.70;99.90
5429;DHT22;2737;52.386;9.980;2023-03-25T10:14:19;9.80;99.90
5429;DHT22;2737;52.386;9.980;2023-03-25T10:16:59;9.80;99.90
5429;DHT22;2737;52.386;9.980;2023-03-25T10:19:42;9.90;99.90
5429;DHT22;2737;52.386;9.980;2023-03-25T10:22:16;10.00;99.90
5429;DHT22;2737;52.386;9.980;2023-03-25T10:24:48;10.00;99.90
5429;DHT22;2737;52.386;9.980;2023-03-25T10:27:19;10.00;99.90
5429;DHT22;2737;52.386;9.980;2023-03-25T10:29:51;10.10;99.90
5429;DHT22;2737;52.386;9.980;2023-03-25T10:32:30;10.20;99.90
5429;DHT22;2737;52.386;9.980;2023-03-25T10:35:00;10.40;99.90
5429;DHT22;2737;52.386;9.980;2023-03-25T10:37:32;10.40;99.90
5429;DHT22;2737;52.386;9.980;2023-03-25T10:40:14;10.40;99.90
5429;DHT22;2737;52.386;9.980;2023-03-25T10:42:50;10.40;99.90
5429;DHT22;2737;52.386;9.980;2023-03-25T10:45:21;10.40;99.90
5429;DHT22;2737;52.386;9.980;2023-03-25T10:47:54;10.40;99.90
5429;DHT22;2737;52.386;9.980;2023-03-25T10:50:24;10.70;99.90
5429;DHT22;2737;52.386;9.980;2023-03-25T10:52:51;10.90;99.90
5429;DHT22;2737;52.386;9.980;2023-03-25T10:55:23;10.90;99.90
5429;DHT22;2737;52.386;9.980;2023-03-25T10:57:51;11.00;99.90
5429;DHT22;2737;52.386;9.980;2023-03-25T11:00:22;11.00;99.90
5429;DHT22;2737;52.386;9.980;2023-03-25T11:02:50;10.90;99.90
5429;DHT22;2737;52.386;9.980;2023-03-25T11:05:21;10.90;99.90
5429;DHT22;2737;52.386;9.980;2023-03-25T11:07:50;11.00;99.90
5429;DHT22;2737;52.386;9.980;2023-03-25T11:10:22;11.00;99.90
5429;DHT22;2737;52.386;9.980;2023-03-25T11:12:50;11.10;99.90
5429;DHT22;2737;52.386;9.980;2023-03-25T11:15:20;11.20;99.90
5429;DHT22;2737;52.386;9.980;2023-03-25T11:17:58;11.20;99.90
5429;DHT22;2737;52.386;9.980;2023-03-25T11:20:29;11.30;99.90
5429;DHT22;2737;52.386;9.980;2023-03-25T11:23:03;11.30;99.90
5429;DHT22;2737;52.386;9.980;2023-03-25T11:25:36;11.30;99.90
5429;DHT22;2737;52.386;9.980;2023-03-25T11:28:11;11.30;99.90
5429;DHT22;2737;52.386;9.980;2023-03-25T11:31:10;11.20;99.90
5429;DHT22;2737;52.386;9.980;2023-03-25T11:33:39;11.00;99.90
5429;DHT22;2737;52.386;9.980;2023-03-25T11:36:12;11.00;99.90
5429;DHT22;2737;52.386;9.980;2023-03-25T11:38:39;11.00;99.90
5429;DHT22;2737;52.386;9.980;2023-03-25T11:41:08;11.00;99.90
5429;DHT22;2737;52.386;9.980;2023-03-25T11:43:36;11.20;99.90
5429;DHT22;2737;52.386;9.980;2023-03-25T11:46:07;11.40;99.90
5429;DHT22;2737;52.386;9.980;2023-03-25T11:48:37;11.50;99.90
5429;DHT22;2737;52.386;9.980;2023-03-25T11:51:09;11.60;99.90
5429;DHT22;2737;52.386;9.980;2023-03-25T11:53:43;11.50;99.90
5429;DHT22;2737;52.386;9.980;2023-03-25T11:56:15;11.40;99.90
5429;DHT22;2737;52.386;9.980;2023-03-25T11:58:45;11.40;99.90
5429;DHT22;2737;52.386;9.980;2023-03-25T12:01:23;11.30;99.90
5429;DHT22;2737;52.386;9.980;2023-03-25T12:03:50;11.20;99.90
5429;DHT22;2737;52.386;9.980;2023-03-25T12:06:20;11.20;99.90
5429;DHT22;2737;52.386;9.980;2023-03-25T12:08:50;11.10;99.90
5429;DHT22;2737;52.386;9.980;2023-03-25T12:11:23;11.40;99.90
5429;DHT22;2737;52.386;9.980;2023-03-25T12:14:18;11.70;99.90
5429;DHT22;2737;52.386;9.980;2023-03-25T12:16:53;11.70;99.90
5429;DHT22;2737;52.386;9.980;2023-03-25T12:19:29;11.40;99.90
5429;DHT22;2737;52.386;9.980;2023-03-25T12:22:08;11.20;99.90
5429;DHT22;2737;52.386;9.980;2023-03-25T12:24:54;11.20;99.90
5429;DHT22;2737;52.386;9.980;2023-03-25T12:27:34;11.20;99.90
5429;DHT22;2737;52.386;9.980;2023-03-25T12:30:12;11.30;99.90
5429;DHT22;2737;52.386;9.980;2023-03-25T12:32:51;11.40;99.90
5429;DHT22;2737;52.386;9.980;2023-03-25T12:35:27;11.50;99.90
5429;DHT22;2737;52.386;9.980;2023-03-25T12:41:06;11.60;99.90
5429;DHT22;2737;52.386;9.980;2023-03-25T12:43:47;11.60;99.90
5429;DHT22;2737;52.386;9.980;2023-03-25T12:46:28;11.50;99.90
5429;DHT22;2737;52.386;9.980;2023-03-25T12:49:11;11.40;99.90
5429;DHT22;2737;52.386;9.980;2023-03-25T12:51:48;11.40;99.90
5429;DHT22;2737;52.386;9.980;2023-03-25T12:54:31;11.50;99.90
5429;DHT22;2737;52.386;9.980;2023-03-25T12:57:09;11.50;99.90
5429;DHT22;2737;52.386;9.980;2023-03-25T12:59:58;11.40;99.90
5429;DHT22;2737;52.386;9.980;2023-03-25T13:05:32;11.40;99.90
5429;DHT22;2737;52.386;9.980;2023-03-25T13:08:07;11.30;99.90
5429;DHT22;2737;52.386;9.980;2023-03-25T13:10:37;11.30;99.90
5429;DHT22;2737;52.386;9.980;2023-03-25T13:13:10;11.20;99.90
5429;DHT22;2737;52.386;9.980;2023-03-25T13:15:42;11.30;99.90
5429;DHT22;2737;52.386;9.980;2023-03-25T13:18:13;11.40;99.90
5429;DHT22;2737;52.386;9.980;2023-03-25T13:20:45;11.50;99.90
5429;DHT22;2737;52.386;9.980;2023-03-25T13:23:18;11.50;99.90
5429;DHT22;2737;52.386;9.980;2023-03-25T13:25:50;11.60;99.90
5429;DHT22;2737;52.386;9.980;2023-03-25T13:28:21;11.60;99.90
5429;DHT22;2737;52.386;9.980;2023-03-25T13:30:52;11.40;99.90
5429;DHT22;2737;52.386;9.980;2023-03-25T13:33:23;11.40;99.90
5429;DHT22;2737;52.386;9.980;2023-03-25T13:35:53;11.50;99.90
5429;DHT22;2737;52.386;9.980;2023-03-25T13:38:25;11.50;99.90
5429;DHT22;2737;52.386;9.980;2023-03-25T13:41:05;11.40;99.90
5429;DHT22;2737;52.386;9.980;2023-03-25T13:43:38;11.40;99.90
5429;DHT22;2737;52.386;9.980;2023-03-25T13:46:12;11.40;99.90
5429;DHT22;2737;52.386;9.980;2023-03-25T13:48:45;11.40;99.90
5429;DHT22;2737;52.386;9.980;2023-03-25T13:51:13;11.50;99.90
5429;DHT22;2737;52.386;9.980;2023-03-25T13:53:44;11.50;99.90
5429;DHT22;2737;52.386;9.980;2023-03-25T13:59:56;11.40;99.90
5429;DHT22;2737;52.386;9.980;2023-03-25T14:05:44;11.20;99.90
5429;DHT22;2737;52.386;9.980;2023-03-25T14:08:43;10.50;99.90
5429;DHT22;2737;52.386;9.980;2023-03-25T14:11:21;10.10;99.90
5429;DHT22;2737;52.386;9.980;2023-03-25T14:13:52;9.90;99.90
5429;DHT22;2737;52.386;9.980;2023-03-25T14:16:22;9.80;99.90
5429;DHT22;2737;52.386;9.980;2023-03-25T14:18:54;9.80;99.90
5429;DHT22;2737;52.386;9.980;2023-03-25T14:21:33;9.80;99.90
5429;DHT22;2737;52.386;9.980;2023-03-25T14:24:10;9.70;99.90
5429;DHT22;2737;52.386;9.980;2023-03-25T14:26:41;9.70;99.90
5429;DHT22;2737;52.386;9.980;2023-03-25T14:29:30;9.70;99.90
5429;DHT22;2737;52.386;9.980;2023-03-25T14:32:02;9.70;99.90
5429;DHT22;2737;52.386;9.980;2023-03-25T14:34:31;9.70;99.90
5429;DHT22;2737;52.386;9.980;2023-03-25T14:37:17;9.70;99.90
5429;DHT22;2737;52.386;9.980;2023-03-25T14:39:51;9.70;99.90
5429;DHT22;2737;52.386;9.980;2023-03-25T14:42:38;9.70;99.90
5429;DHT22;2737;52.386;9.980;2023-03-25T14:48:05;9.60;99.90
5429;DHT22;2737;52.386;9.980;2023-03-25T14:50:36;9.60;99.90
5429;DHT22;2737;52.386;9.980;2023-03-25T14:53:09;9.70;99.90
5429;DHT22;2737;52.386;9.980;2023-03-25T14:55:41;9.70;99.90
5429;DHT22;2737;52.386;9.980;2023-03-25T14:58:17;9.90;99.90
5429;DHT22;2737;52.386;9.980;2023-03-25T15:00:51;9.90;99.90
5429;DHT22;2737;52.386;9.980;2023-03-25T15:03:20;10.00;99.90
5429;DHT22;2737;52.386;9.980;2023-03-25T15:05:54;10.20;99.90
5429;DHT22;2737;52.386;9.980;2023-03-25T15:08:25;10.10;99.90
5429;DHT22;2737;52.386;9.980;2023-03-25T15:11:05;10.00;99.90
5429;DHT22;2737;52.386;9.980;2023-03-25T15:13:34;9.90;99.90
5429;DHT22;2737;52.386;9.980;2023-03-25T15:16:04;9.90;99.90
5429;DHT22;2737;52.386;9.980;2023-03-25T15:19:01;9.70;99.90
5429;DHT22;2737;52.386;9.980;2023-03-25T15:22:14;9.60;99.90
5429;DHT22;2737;52.386;9.980;2023-03-25T15:24:48;9.40;99.90
5429;DHT22;2737;52.386;9.980;2023-03-25T15:27:27;9.20;99.90
5429;DHT22;2737;52.386;9.980;2023-03-25T15:30:03;9.10;99.90
5429;DHT22;2737;52.386;9.980;2023-03-25T15:32:51;9.00;99.90
5429;DHT22;2737;52.386;9.980;2023-03-25T15:35:41;9.00;99.90
5429;DHT22;2737;52.386;9.980;2023-03-25T15:38:39;9.00;99.90
5429;DHT22;2737;52.386;9.980;2023-03-25T15:41:22;9.10;99.90
5429;DHT22;2737;52.386;9.980;2023-03-25T15:44:17;9.10;99.90
5429;DHT22;2737;52.386;9.980;2023-03-25T15:46:57;9.10;99.90
5429;DHT22;2737;52.386;9.980;2023-03-25T15:52:49;9.10;99.90
5429;DHT22;2737;52.386;9.980;2023-03-25T15:55:22;9.00;99.90
5429;DHT22;2737;52.386;9.980;2023-03-25T15:57:54;9.00;99.90
5429;DHT22;2737;52.386;9.980;2023-03-25T16:00:26;9.00;99.90
5429;DHT22;2737;52.386;9.980;2023-03-25T16:03:00;9.00;99.90
5429;DHT22;2737;52.386;9.980;2023-03-25T16:05:30;8.90;99.90
5429;DHT22;2737;52.386;9.980;2023-03-25T16:08:04;8.90;99.90
5429;DHT22;2737;52.386;9.980;2023-03-25T16:10:33;8.90;99.90
5429;DHT22;2737;52.386;9.980;2023-03-25T16:13:02;8.90;99.90
5429;DHT22;2737;52.386;9.980;2023-03-25T16:15:32;8.90;99.90
5429;DHT22;2737;52.386;9.980;2023-03-25T16:18:02;8.90;99.90
5429;DHT22;2737;52.386;9.980;2023-03-25T16:20:32;8.80;99.90
5429;DHT22;2737;52.386;9.980;2023-03-25T16:23:01;8.80;99.90
5429;DHT22;2737;52.386;9.980;2023-03-25T16:25:32;8.70;99.90
5429;DHT22;2737;52.386;9.980;2023-03-25T16:28:04;8.70;99.90
5429;DHT22;2737;52.386;9.980;2023-03-25T16:30:34;8.60;99.90
5429;DHT22;2737;52.386;9.980;2023-03-25T16:33:14;8.50;99.90
5429;DHT22;2737;52.386;9.980;2023-03-25T16:35:43;8.50;99.90
5429;DHT22;2737;52.386;9.980;2023-03-25T16:38:13;8.50;99.90
5429;DHT22;2737;52.386;9.980;2023-03-25T16:40:44;8.40;99.90
5429;DHT22;2737;52.386;9.980;2023-03-25T16:43:15;8.40;99.90
5429;DHT22;2737;52.386;9.980;2023-03-25T16:45:43;8.40;99.90
5429;DHT22;2737;52.386;9.980;2023-03-25T16:48:15;8.50;99.90
5429;DHT22;2737;52.386;9.980;2023-03-25T16:50:43;8.50;99.90
5429;DHT22;2737;52.386;9.980;2023-03-25T16:53:13;8.60;99.90
5429;DHT22;2737;52.386;9.980;2023-03-25T16:55:46;8.60;99.90
5429;DHT22;2737;52.386;9.980;2023-03-25T16:58:17;8.60;99.90
5429;DHT22;2737;52.386;9.980;2023-03-25T17:00:47;8.60;99.90
5429;DHT22;2737;52.386;9.980;2023-03-25T17:03:38;8.60;99.90
5429;DHT22;2737;52.386;9.980;2023-03-25T17:06:09;8.70;99.90